sensor_id;sensor_type;location;lat;lon;timestamp;pressure;altitude;pressure_sealevel;temperature;humidity
24013;BME280;12220;50.194;18.948;2023-03-01T00:01:28;103199.77;;;-0.60;61.05
24013;BME280;12220;50.194;18.948;2023-03-01T00:03:30;103185.39;;;-0.62;61.01
24013;BME280;12220;50.194;18.948;2023-03-01T00:05:32;103190.78;;;-0.62;61.01
24013;BME280;12220;50.194;18.948;2023-03-01T00:07:34;103188.94;;;-0.65;60.99
24013;BME280;12220;50.194;18.948;2023-03-01T00:09:41;103192.51;;;-0.66;60.96
24013;BME280;12220;50.194;18.948;2023-03-01T00:11:43;103193.34;;;-0.68;61.01
24013;BME280;12220;50.194;18.948;2023-03-01T00:13:46;103196.02;;;-0.70;61.05
24013;BME280;12220;50.194;18.948;2023-03-01T00:15:48;103204.05;;;-0.73;61.12
24013;BME280;12220;50.194;18.948;2023-03-01T00:17:57;103205.84;;;-0.74;61.12
24013;BME280;12220;50.194;18.948;2023-03-01T00:19:58;103208.51;;;-0.75;61.17
24013;BME280;12220;50.194;18.948;2023-03-01T00:22:00;103204.84;;;-0.79;61.16
24013;BME280;12220;50.194;18.948;2023-03-01T00:24:02;103208.41;;;-0.81;61.18
24013;BME280;12220;50.194;18.948;2023-03-01T00:26:13;103211.95;;;-0.84;61.22
24013;BME280;12220;50.194;18.948;2023-03-01T00:28:16;103203.84;;;-0.87;61.26
24013;BME280;12220;50.194;18.948;2023-03-01T00:30:18;103202.02;;;-0.88;61.27
24013;BME280;12220;50.194;18.948;2023-03-01T00:32:20;103190.33;;;-0.90;61.34
24013;BME280;12220;50.194;18.948;2023-03-01T00:34:28;103189.38;;;-0.92;61.30
24013;BME280;12220;50.194;18.948;2023-03-01T00:36:33;103180.34;;;-0.97;61.25
24013;BME280;12220;50.194;18.948;2023-03-01T00:38:36;103188.37;;;-1.00;61.26
24013;BME280;12220;50.194;18.948;2023-03-01T00:40:38;103181.09;;;-1.06;61.29
24013;BME280;12220;50.194;18.948;2023-03-01T00:42:45;103180.98;;;-1.11;61.38
24013;BME280;12220;50.194;18.948;2023-03-01T00:44:47;103179.14;;;-1.15;61.47
24013;BME280;12220;50.194;18.948;2023-03-01T00:46:48;103180.86;;;-1.18;61.51
24013;BME280;12220;50.194;18.948;2023-03-01T00:48:50;103177.27;;;-1.19;61.53
24013;BME280;12220;50.194;18.948;2023-03-01T00:53:20;103183.47;;;-1.23;61.61
24013;BME280;12220;50.194;18.948;2023-03-01T00:55:22;103178.06;;;-1.25;61.67
24013;BME280;12220;50.194;18.948;2023-03-01T00:57:24;103184.34;;;-1.24;61.67
24013;BME280;12220;50.194;18.948;2023-03-01T00:59:25;103183.47;;;-1.23;61.66
24013;BME280;12220;50.194;18.948;2023-03-01T01:01:35;103181.64;;;-1.24;61.60
24013;BME280;12220;50.194;18.948;2023-03-01T01:03:37;103179.84;;;-1.27;61.55
24013;BME280;12220;50.194;18.948;2023-03-01T01:05:38;103174.34;;;-1.31;61.50
24013;BME280;12220;50.194;18.948;2023-03-01T01:07:40;103178.78;;;-1.35;61.51
24013;BME280;12220;50.194;18.948;2023-03-01T01:12:22;103175.82;;;-1.49;61.62
24013;BME280;12220;50.194;18.948;2023-03-01T01:14:34;103170.35;;;-1.53;61.68
24013;BME280;12220;50.194;18.948;2023-03-01T01:16:36;103174.74;;;-1.59;61.78
24013;BME280;12220;50.194;18.948;2023-03-01T01:18:37;103170.19;;;-1.63;61.81
24013;BME280;12220;50.194;18.948;2023-03-01T01:20:39;103160.23;;;-1.68;61.86
24013;BME280;12220;50.194;18.948;2023-03-01T01:22:49;103169.09;;;-1.72;61.95
24013;BME280;12220;50.194;18.948;2023-03-01T01:24:52;102943.69;;;-3.02;62.04
24013;BME280;12220;50.194;18.948;2023-03-01T01:26:53;103169.90;;;-1.77;62.24
24013;BME280;12220;50.194;18.948;2023-03-01T01:28:55;103160.98;;;-1.76;62.28
24013;BME280;12220;50.194;18.948;2023-03-01T01:31:05;103153.78;;;-1.77;62.27
24013;BME280;12220;50.194;18.948;2023-03-01T01:33:06;103159.13;;;-1.78;62.26
24013;BME280;12220;50.194;18.948;2023-03-01T01:35:08;103156.38;;;-1.81;62.24
24013;BME280;12220;50.194;18.948;2023-03-01T01:37:10;103160.80;;;-1.85;62.25
24013;BME280;12220;50.194;18.948;2023-03-01T01:39:20;103157.10;;;-1.90;62.26
24013;BME280;12220;50.194;18.948;2023-03-01T01:41:23;103152.48;;;-1.97;62.34
24013;BME280;12220;50.194;18.948;2023-03-01T01:43:31;103148.84;;;-2.01;62.48
24013;BME280;12220;50.194;18.948;2023-03-01T01:45:35;103153.28;;;-2.01;62.62
24013;BME280;12220;50.194;18.948;2023-03-01T01:47:39;103139.89;;;-2.00;62.68
24013;BME280;12220;50.194;18.948;2023-03-01T01:49:47;103147.11;;;-1.97;62.69
24013;BME280;12220;50.194;18.948;2023-03-01T01:51:53;103144.42;;;-1.97;62.65
24013;BME280;12220;50.194;18.948;2023-03-01T01:54:00;103140.80;;;-1.99;62.66
24013;BME280;12220;50.194;18.948;2023-03-01T01:56:07;103142.60;;;-1.98;62.71
24013;BME280;12220;50.194;18.948;2023-03-01T01:58:19;103142.60;;;-1.98;62.75
24013;BME280;12220;50.194;18.948;2023-03-01T02:00:24;103144.42;;;-1.97;62.74
24013;BME280;12220;50.194;18.948;2023-03-01T02:02:26;103136.37;;;-1.97;62.69
24013;BME280;12220;50.194;18.948;2023-03-01T02:04:29;103130.99;;;-1.97;62.66
24013;BME280;12220;50.194;18.948;2023-03-01T02:06:34;103131.86;;;-1.98;62.61
24013;BME280;12220;50.194;18.948;2023-03-01T02:08:40;103128.25;;;-2.00;62.63
24013;BME280;12220;50.194;18.948;2023-03-01T02:10:44;103121.96;;;-2.02;62.73
24013;BME280;12220;50.194;18.948;2023-03-01T02:16:46;103129.12;;;-2.01;62.84
24013;BME280;12220;50.194;18.948;2023-03-01T02:18:49;103123.74;;;-2.01;62.91
24013;BME280;12220;50.194;18.948;2023-03-01T02:21:03;103124.67;;;-2.01;62.97
24013;BME280;12220;50.194;18.948;2023-03-01T02:23:04;103127.41;;;-1.98;62.98
24013;BME280;12220;50.194;18.948;2023-03-01T02:27:27;103125.63;;;-1.97;62.94
24013;BME280;12220;50.194;18.948;2023-03-01T02:29:32;103130.14;;;-1.96;62.95
24013;BME280;12220;50.194;18.948;2023-03-01T02:31:34;103127.45;;;-1.96;62.95
24013;BME280;12220;50.194;18.948;2023-03-01T02:33:45;103126.52;;;-1.97;62.96
24013;BME280;12220;50.194;18.948;2023-03-01T02:35:49;103130.16;;;-1.95;62.94
24013;BME280;12220;50.194;18.948;2023-03-01T02:38:01;103120.27;;;-1.96;62.94
24013;BME280;12220;50.194;18.948;2023-03-01T02:40:08;103137.26;;;-1.97;62.95
24013;BME280;12220;50.194;18.948;2023-03-01T02:42:21;103134.59;;;-1.97;62.96
24013;BME280;12220;50.194;18.948;2023-03-01T02:44:24;103134.59;;;-1.97;62.98
24013;BME280;12220;50.194;18.948;2023-03-01T02:46:26;103125.63;;;-1.97;62.88
24013;BME280;12220;50.194;18.948;2023-03-01T02:48:27;103137.32;;;-1.95;63.04
24013;BME280;12220;50.194;18.948;2023-03-01T02:52:47;103131.96;;;-1.95;62.94
24013;BME280;12220;50.194;18.948;2023-03-01T02:54:59;103131.86;;;-1.98;62.73
24013;BME280;12220;50.194;18.948;2023-03-01T02:57:02;103120.10;;;-2.05;62.67
24013;BME280;12220;50.194;18.948;2023-03-01T02:59:04;103133.35;;;-2.13;62.68
24013;BME280;12220;50.194;18.948;2023-03-01T03:01:06;103134.12;;;-2.20;62.81
24013;BME280;12220;50.194;18.948;2023-03-01T03:03:12;103132.24;;;-2.24;62.95
24013;BME280;12220;50.194;18.948;2023-03-01T03:05:28;103132.19;;;-2.27;63.10
24013;BME280;12220;50.194;18.948;2023-03-01T03:07:37;103134.86;;;-2.27;63.14
24013;BME280;12220;50.194;18.948;2023-03-01T03:09:38;103131.23;;;-2.29;63.10
24013;BME280;12220;50.194;18.948;2023-03-01T03:11:41;103134.77;;;-2.30;63.06
24013;BME280;12220;50.194;18.948;2023-03-01T03:13:43;103134.70;;;-2.33;63.10
24013;BME280;12220;50.194;18.948;2023-03-01T03:15:50;103159.75;;;-2.34;63.17
24013;BME280;12220;50.194;18.948;2023-03-01T03:17:53;103131.94;;;-2.38;63.24
24013;BME280;12220;50.194;18.948;2023-03-01T03:19:54;103127.41;;;-2.39;63.25
24013;BME280;12220;50.194;18.948;2023-03-01T03:21:56;103119.35;;;-2.40;63.20
24013;BME280;12220;50.194;18.948;2023-03-01T03:24:05;103118.38;;;-2.44;63.28
24013;BME280;12220;50.194;18.948;2023-03-01T03:26:07;103118.38;;;-2.44;63.45
24013;BME280;12220;50.194;18.948;2023-03-01T03:28:08;103117.49;;;-2.44;63.52
24013;BME280;12220;50.194;18.948;2023-03-01T03:30:13;103120.16;;;-2.44;63.51
24013;BME280;12220;50.194;18.948;2023-03-01T03:32:21;103125.44;;;-2.48;63.48
24013;BME280;12220;50.194;18.948;2023-03-01T03:34:23;103119.12;;;-2.51;63.48
24013;BME280;12220;50.194;18.948;2023-03-01T03:36:25;103109.18;;;-2.55;63.50
24013;BME280;12220;50.194;18.948;2023-03-01T03:38:26;103118.92;;;-2.60;63.55
24013;BME280;12220;50.194;18.948;2023-03-01T03:40:39;103109.85;;;-2.66;63.62
24013;BME280;12220;50.194;18.948;2023-03-01T03:42:41;103114.26;;;-2.69;63.71
24013;BME280;12220;50.194;18.948;2023-03-01T03:44:42;103114.15;;;-2.72;63.80
24013;BME280;12220;50.194;18.948;2023-03-01T03:46:44;103103.36;;;-2.75;63.86
24013;BME280;12220;50.194;18.948;2023-03-01T03:48:52;103106.95;;;-2.76;63.90
24013;BME280;12220;50.194;18.948;2023-03-01T03:53:32;103104.23;;;-2.78;64.02
24013;BME280;12220;50.194;18.948;2023-03-01T03:55:35;103085.66;;;-3.07;64.10
24013;BME280;12220;50.194;18.948;2023-03-01T03:57:48;103096.16;;;-2.78;64.17
24013;BME280;12220;50.194;18.948;2023-03-01T03:59:54;103103.32;;;-2.77;64.21
24013;BME280;12220;50.194;18.948;2023-03-01T04:01:56;103106.97;;;-2.75;64.20
24013;BME280;12220;50.194;18.948;2023-03-01T04:03:57;103115.91;;;-2.74;64.13
24013;BME280;12220;50.194;18.948;2023-03-01T04:06:05;103116.76;;;-2.75;64.13
24013;BME280;12220;50.194;18.948;2023-03-01T04:08:08;103110.55;;;-2.74;64.19
24013;BME280;12220;50.194;18.948;2023-03-01T04:10:12;103125.80;;;-2.72;64.25
24013;BME280;12220;50.194;18.948;2023-03-01T04:12:14;103109.68;;;-2.73;64.21
24013;BME280;12220;50.194;18.948;2023-03-01T04:14:23;103107.90;;;-2.73;64.18
24013;BME280;12220;50.194;18.948;2023-03-01T04:16:25;103114.13;;;-2.74;64.22
24013;BME280;12220;50.194;18.948;2023-03-01T04:18:27;103118.59;;;-2.74;64.27
24013;BME280;12220;50.194;18.948;2023-03-01T04:20:34;103117.73;;;-2.73;64.29
24013;BME280;12220;50.194;18.948;2023-03-01T04:22:37;103124.89;;;-2.72;64.26
24013;BME280;12220;50.194;18.948;2023-03-01T04:24:38;103116.84;;;-2.72;64.29
24013;BME280;12220;50.194;18.948;2023-03-01T04:26:40;103118.62;;;-2.73;64.28
24013;BME280;12220;50.194;18.948;2023-03-01T04:28:42;103112.33;;;-2.75;64.28
24013;BME280;12220;50.194;18.948;2023-03-01T04:30:50;103117.66;;;-2.76;64.26
24013;BME280;12220;50.194;18.948;2023-03-01T04:32:52;103110.45;;;-2.79;64.30
24013;BME280;12220;50.194;18.948;2023-03-01T04:34:53;103112.16;;;-2.81;64.35
24013;BME280;12220;50.194;18.948;2023-03-01T04:36:55;103108.55;;;-2.83;64.32
24013;BME280;12220;50.194;18.948;2023-03-01T04:39:05;103114.77;;;-2.84;64.50
24013;BME280;12220;50.194;18.948;2023-03-01T04:41:17;103111.20;;;-2.85;64.57
24013;BME280;12220;50.194;18.948;2023-03-01T04:43:18;103117.45;;;-2.84;64.62
24013;BME280;12220;50.194;18.948;2023-03-01T04:45:20;103112.06;;;-2.86;64.64
24013;BME280;12220;50.194;18.948;2023-03-01T04:47:24;103107.62;;;-2.85;64.69
24013;BME280;12220;50.194;18.948;2023-03-01T04:49:25;103104.91;;;-2.87;64.75
24013;BME280;12220;50.194;18.948;2023-03-01T04:51:27;103113.88;;;-2.85;64.80
24013;BME280;12220;50.194;18.948;2023-03-01T04:53:29;103110.30;;;-2.85;64.85
24013;BME280;12220;50.194;18.948;2023-03-01T04:55:39;103107.62;;;-2.85;64.85
24013;BME280;12220;50.194;18.948;2023-03-01T04:57:41;103108.52;;;-2.85;64.84
24013;BME280;12220;50.194;18.948;2023-03-01T04:59:42;103106.73;;;-2.84;64.89
24013;BME280;12220;50.194;18.948;2023-03-01T05:01:45;103099.57;;;-2.85;64.94
24013;BME280;12220;50.194;18.948;2023-03-01T05:03:54;103101.37;;;-2.84;64.93
24013;BME280;12220;50.194;18.948;2023-03-01T05:05:58;103095.97;;;-2.86;64.93
24013;BME280;12220;50.194;18.948;2023-03-01T05:08:03;103138.84;;;-2.87;64.91
24013;BME280;12220;50.194;18.948;2023-03-01T05:10:05;103095.01;;;-2.89;64.90
24013;BME280;12220;50.194;18.948;2023-03-01T05:12:10;103088.69;;;-2.91;64.91
24013;BME280;12220;50.194;18.948;2023-03-01T05:14:11;103088.66;;;-2.93;64.97
24013;BME280;12220;50.194;18.948;2023-03-01T05:16:13;103081.49;;;-2.94;65.07
24013;BME280;12220;50.194;18.948;2023-03-01T05:18:15;103095.83;;;-2.92;65.13
24013;BME280;12220;50.194;18.948;2023-03-01T05:20:27;103082.38;;;-2.93;65.17
24013;BME280;12220;50.194;18.948;2023-03-01T05:22:29;103081.57;;;-2.91;65.20
24013;BME280;12220;50.194;18.948;2023-03-01T05:24:32;103079.81;;;-2.89;65.23
24013;BME280;12220;50.194;18.948;2023-03-01T05:26:34;103088.84;;;-2.85;65.20
24013;BME280;12220;50.194;18.948;2023-03-01T05:28:41;103088.88;;;-2.84;65.15
24013;BME280;12220;50.194;18.948;2023-03-01T05:30:43;103091.60;;;-2.82;65.15
24013;BME280;12220;50.194;18.948;2023-03-01T05:32:46;103085.34;;;-2.81;65.15
24013;BME280;12220;50.194;18.948;2023-03-01T05:34:48;103135.13;;;-2.94;65.14
24013;BME280;12220;50.194;18.948;2023-03-01T05:36:57;103084.59;;;-2.75;65.12
24013;BME280;12220;50.194;18.948;2023-03-01T05:38:59;103085.53;;;-2.73;65.13
24013;BME280;12220;50.194;18.948;2023-03-01T05:41:01;103086.46;;;-2.71;65.04
24013;BME280;12220;50.194;18.948;2023-03-01T05:43:02;103094.55;;;-2.70;64.96
24013;BME280;12220;50.194;18.948;2023-03-01T05:45:13;103087.39;;;-2.71;64.89
24013;BME280;12220;50.194;18.948;2023-03-01T05:47:15;103090.95;;;-2.72;64.91
24013;BME280;12220;50.194;18.948;2023-03-01T05:49:20;103084.64;;;-2.72;64.92
24013;BME280;12220;50.194;18.948;2023-03-01T05:51:25;103075.67;;;-2.74;65.08
24013;BME280;12220;50.194;18.948;2023-03-01T05:53:27;103092.69;;;-2.72;64.95
24013;BME280;12220;50.194;18.948;2023-03-01T05:55:29;103086.44;;;-2.73;65.03
24013;BME280;12220;50.194;18.948;2023-03-01T05:57:32;103096.34;;;-2.70;65.08
24013;BME280;12220;50.194;18.948;2023-03-01T05:59:33;103093.69;;;-2.69;65.10
24013;BME280;12220;50.194;18.948;2023-03-01T06:01:42;103102.66;;;-2.67;65.12
24013;BME280;12220;50.194;18.948;2023-03-01T06:03:44;103102.69;;;-2.65;65.10
24013;BME280;12220;50.194;18.948;2023-03-01T06:05:46;103107.20;;;-2.64;65.10
24013;BME280;12220;50.194;18.948;2023-03-01T06:07:47;103107.23;;;-2.63;65.10
24013;BME280;12220;50.194;18.948;2023-03-01T06:09:58;103101.91;;;-2.61;65.13
24013;BME280;12220;50.194;18.948;2023-03-01T06:11:59;103098.35;;;-2.60;65.12
24013;BME280;12220;50.194;18.948;2023-03-01T06:14:01;103111.80;;;-2.58;65.12
24013;BME280;12220;50.194;18.948;2023-03-01T06:16:05;103109.16;;;-2.57;65.08
24013;BME280;12220;50.194;18.948;2023-03-01T06:18:13;103110.05;;;-2.56;65.04
24013;BME280;12220;50.194;18.948;2023-03-01T06:20:20;103107.33;;;-2.58;65.03
24013;BME280;12220;50.194;18.948;2023-03-01T06:22:22;103104.65;;;-2.58;65.05
24013;BME280;12220;50.194;18.948;2023-03-01T06:24:23;103116.27;;;-2.59;65.12
24013;BME280;12220;50.194;18.948;2023-03-01T06:26:28;103110.90;;;-2.59;65.16
24013;BME280;12220;50.194;18.948;2023-03-01T06:28:30;103111.83;;;-2.57;65.22
24013;BME280;12220;50.194;18.948;2023-03-01T06:30:31;103110.01;;;-2.58;65.22
24013;BME280;12220;50.194;18.948;2023-03-01T06:32:33;103108.29;;;-2.56;65.22
24013;BME280;12220;50.194;18.948;2023-03-01T06:34:43;103116.34;;;-2.56;65.27
24013;BME280;12220;50.194;18.948;2023-03-01T06:36:46;103105.60;;;-2.56;65.35
24013;BME280;12220;50.194;18.948;2023-03-01T06:38:47;103118.15;;;-2.55;65.40
24013;BME280;12220;50.194;18.948;2023-03-01T06:40:53;103104.75;;;-2.55;65.45
24013;BME280;12220;50.194;18.948;2023-03-01T06:42:59;103105.66;;;-2.53;65.49
24013;BME280;12220;50.194;18.948;2023-03-01T06:45:02;103106.57;;;-2.52;65.58
24013;BME280;12220;50.194;18.948;2023-03-01T06:47:04;103116.47;;;-2.50;65.71
24013;BME280;12220;50.194;18.948;2023-03-01T06:49:06;103107.58;;;-2.47;65.79
24013;BME280;12220;50.194;18.948;2023-03-01T06:51:14;103113.05;;;-2.42;65.84
24013;BME280;12220;50.194;18.948;2023-03-01T06:53:16;103107.75;;;-2.39;65.89
24013;BME280;12220;50.194;18.948;2023-03-01T06:55:20;103109.62;;;-2.35;65.91
24013;BME280;12220;50.194;18.948;2023-03-01T06:57:22;103107.90;;;-2.32;65.95
24013;BME280;12220;50.194;18.948;2023-03-01T06:59:29;103107.13;;;-2.26;66.06
24013;BME280;12220;50.194;18.948;2023-03-01T07:01:34;103105.45;;;-2.21;66.13
24013;BME280;12220;50.194;18.948;2023-03-01T07:03:36;103105.58;;;-2.15;66.18
24013;BME280;12220;50.194;18.948;2023-03-01T07:05:39;103105.70;;;-2.08;66.20
24013;BME280;12220;50.194;18.948;2023-03-01T07:07:45;103102.21;;;-2.04;66.24
24013;BME280;12220;50.194;18.948;2023-03-01T07:09:48;103098.74;;;-1.99;66.29
24013;BME280;12220;50.194;18.948;2023-03-01T07:11:50;103102.47;;;-1.92;66.40
24013;BME280;12220;50.194;18.948;2023-03-01T07:13:52;103103.45;;;-1.87;66.43
24013;BME280;12220;50.194;18.948;2023-03-01T07:16:00;103103.55;;;-1.81;66.38
24013;BME280;12220;50.194;18.948;2023-03-01T07:18:02;103093.82;;;-1.76;66.37
24013;BME280;12220;50.194;18.948;2023-03-01T07:20:04;103102.02;;;-1.68;66.41
24013;BME280;12220;50.194;18.948;2023-03-01T07:22:06;103106.60;;;-1.62;66.42
24013;BME280;12220;50.194;18.948;2023-03-01T07:24:15;103099.54;;;-1.57;66.42
24013;BME280;12220;50.194;18.948;2023-03-01T07:26:17;103096.96;;;-1.51;66.45
24013;BME280;12220;50.194;18.948;2023-03-01T07:28:18;103098.83;;;-1.47;66.49
24013;BME280;12220;50.194;18.948;2023-03-01T07:30:21;103099.85;;;-1.38;66.52
24013;BME280;12220;50.194;18.948;2023-03-01T07:32:31;103097.27;;;-1.34;66.51
24013;BME280;12220;50.194;18.948;2023-03-01T07:34:32;103099.13;;;-1.28;66.52
24013;BME280;12220;50.194;18.948;2023-03-01T07:36:34;103095.63;;;-1.23;66.60
24013;BME280;12220;50.194;18.948;2023-03-01T07:38:35;103093.10;;;-1.15;66.61
24013;BME280;12220;50.194;18.948;2023-03-01T07:40:46;103088.71;;;-1.08;66.57
24013;BME280;12220;50.194;18.948;2023-03-01T07:42:48;103079.84;;;-1.02;66.55
24013;BME280;12220;50.194;18.948;2023-03-01T07:44:49;103071.83;;;-0.98;66.54
24013;BME280;12220;50.194;18.948;2023-03-01T07:46:50;103069.23;;;-0.93;66.57
24013;BME280;12220;50.194;18.948;2023-03-01T07:49:01;103063.95;;;-0.85;66.60
24013;BME280;12220;50.194;18.948;2023-03-01T07:51:05;103061.35;;;-0.79;66.56
24013;BME280;12220;50.194;18.948;2023-03-01T07:53:08;103063.23;;;-0.74;66.54
24013;BME280;12220;50.194;18.948;2023-03-01T07:55:10;103057.94;;;-0.67;66.49
24013;BME280;12220;50.194;18.948;2023-03-01T07:57:16;103055.30;;;-0.63;66.46
24013;BME280;12220;50.194;18.948;2023-03-01T07:59:18;103058.09;;;-0.57;66.41
24013;BME280;12220;50.194;18.948;2023-03-01T08:01:21;103061.73;;;-0.51;66.40
24013;BME280;12220;50.194;18.948;2023-03-01T08:03:23;102623.07;;;-2.92;66.18
24013;BME280;12220;50.194;18.948;2023-03-01T08:05:32;103059.22;;;-0.39;66.36
24013;BME280;12220;50.194;18.948;2023-03-01T08:07:33;103063.80;;;-0.32;66.35
24013;BME280;12220;50.194;18.948;2023-03-01T08:09:35;103066.55;;;-0.26;66.34
24013;BME280;12220;50.194;18.948;2023-03-01T08:11:38;103063.93;;;-0.20;66.34
24013;BME280;12220;50.194;18.948;2023-03-01T08:13:48;103064.91;;;-0.13;66.29
24013;BME280;12220;50.194;18.948;2023-03-01T08:15:49;103051.54;;;-0.05;66.25
24013;BME280;12220;50.194;18.948;2023-03-01T08:17:51;102830.30;;;-1.28;66.06
24013;BME280;12220;50.194;18.948;2023-03-01T08:19:52;103060.68;;;0.11;66.20
24013;BME280;12220;50.194;18.948;2023-03-01T08:22:02;103058.98;;;0.19;66.12
24013;BME280;12220;50.194;18.948;2023-03-01T08:24:06;103059.94;;;0.26;66.03
24013;BME280;12220;50.194;18.948;2023-03-01T08:26:16;103056.42;;;0.34;65.94
24013;BME280;12220;50.194;18.948;2023-03-01T08:28:19;103057.42;;;0.43;65.86
24013;BME280;12220;50.194;18.948;2023-03-01T08:30:20;103046.68;;;0.50;65.82
24013;BME280;12220;50.194;18.948;2023-03-01T08:32:24;103051.26;;;0.59;65.76
24013;BME280;12220;50.194;18.948;2023-03-01T08:34:26;103044.16;;;0.69;65.62
24013;BME280;12220;50.194;18.948;2023-03-01T08:36:33;103044.19;;;0.75;65.49
24013;BME280;12220;50.194;18.948;2023-03-01T08:38:36;103046.05;;;0.84;65.40
24013;BME280;12220;50.194;18.948;2023-03-01T08:40:38;103051.50;;;0.92;65.30
24013;BME280;12220;50.194;18.948;2023-03-01T08:42:41;103043.48;;;0.98;65.23
24013;BME280;12220;50.194;18.948;2023-03-01T08:44:43;103042.64;;;1.07;65.12
24013;BME280;12220;50.194;18.948;2023-03-01T08:46:48;103037.29;;;1.17;65.04
24013;BME280;12220;50.194;18.948;2023-03-01T08:48:52;103030.14;;;1.24;64.86
24013;BME280;12220;50.194;18.948;2023-03-01T08:50:54;103031.99;;;1.34;64.66
24013;BME280;12220;50.194;18.948;2023-03-01T08:52:56;103024.80;;;1.43;64.47
24013;BME280;12220;50.194;18.948;2023-03-01T08:55:04;103020.36;;;1.52;64.32
24013;BME280;12220;50.194;18.948;2023-03-01T08:57:05;103025.82;;;1.62;64.10
24013;BME280;12220;50.194;18.948;2023-03-01T08:59:07;102757.20;;;0.21;63.86
24013;BME280;12220;50.194;18.948;2023-03-01T09:01:10;103021.35;;;1.78;63.81
24013;BME280;12220;50.194;18.948;2023-03-01T09:03:18;103025.87;;;1.85;63.51
24013;BME280;12220;50.194;18.948;2023-03-01T09:05:20;103022.29;;;1.92;63.13
24013;BME280;12220;50.194;18.948;2023-03-01T09:07:21;103021.41;;;2.02;62.91
24013;BME280;12220;50.194;18.948;2023-03-01T09:09:31;103023.27;;;2.13;62.64
24013;BME280;12220;50.194;18.948;2023-03-01T09:11:33;103017.86;;;2.23;61.84
24013;BME280;12220;50.194;18.948;2023-03-01T09:13:35;103016.08;;;2.33;61.93
24013;BME280;12220;50.194;18.948;2023-03-01T09:15:37;103016.06;;;2.42;61.45
24013;BME280;12220;50.194;18.948;2023-03-01T09:17:40;103006.16;;;2.49;61.20
24013;BME280;12220;50.194;18.948;2023-03-01T09:19:49;103006.16;;;2.55;61.19
24013;BME280;12220;50.194;18.948;2023-03-01T09:21:50;103010.66;;;2.64;60.70
24013;BME280;12220;50.194;18.948;2023-03-01T09:23:58;103007.05;;;2.74;60.61
24013;BME280;12220;50.194;18.948;2023-03-01T09:27:05;103010.66;;;2.84;60.44
24013;BME280;12220;50.194;18.948;2023-03-01T09:29:02;103010.62;;;2.95;59.53
24013;BME280;12220;50.194;18.948;2023-03-01T09:31:28;103012.41;;;3.02;59.49
24013;BME280;12220;50.194;18.948;2023-03-01T09:33:31;103010.59;;;3.10;59.35
24013;BME280;12220;50.194;18.948;2023-03-01T09:35:41;103016.88;;;3.16;59.07
24013;BME280;12220;50.194;18.948;2023-03-01T09:37:48;103015.97;;;3.21;58.57
24013;BME280;12220;50.194;18.948;2023-03-01T09:39:51;103020.46;;;3.30;58.38
24013;BME280;12220;50.194;18.948;2023-03-01T09:44:16;103019.52;;;3.40;58.07
24013;BME280;12220;50.194;18.948;2023-03-01T09:46:23;103011.39;;;3.40;57.71
24013;BME280;12220;50.194;18.948;2023-03-01T09:48:27;103012.28;;;3.45;57.88
24013;BME280;12220;50.194;18.948;2023-03-01T09:50:35;103015.87;;;3.51;57.68
24013;BME280;12220;50.194;18.948;2023-03-01T09:52:47;103009.53;;;3.55;57.63
24013;BME280;12220;50.194;18.948;2023-03-01T09:54:54;103013.13;;;3.60;57.77
24013;BME280;12220;50.194;18.948;2023-03-01T09:59:31;103041.05;;;3.71;57.10
24013;BME280;12220;50.194;18.948;2023-03-01T10:06:23;102997.61;;;3.90;56.12
24013;BME280;12220;50.194;18.948;2023-03-01T10:08:48;103001.21;;;3.95;56.24
24013;BME280;12220;50.194;18.948;2023-03-01T10:10:47;103003.88;;;3.98;55.99
24013;BME280;12220;50.194;18.948;2023-03-01T10:12:50;102998.44;;;4.03;55.87
24013;BME280;12220;50.194;18.948;2023-03-01T10:17:20;102982.09;;;4.12;56.04
24013;BME280;12220;50.194;18.948;2023-03-01T10:19:33;102984.78;;;4.18;56.05
24013;BME280;12220;50.194;18.948;2023-03-01T10:21:43;102979.34;;;4.19;55.91
24013;BME280;12220;50.194;18.948;2023-03-01T10:23:47;102982.94;;;4.22;55.48
24013;BME280;12220;50.194;18.948;2023-03-01T10:26:05;102983.81;;;4.24;55.59
24013;BME280;12220;50.194;18.948;2023-03-01T10:32:35;102974.70;;;4.35;55.37
24013;BME280;12220;50.194;18.948;2023-03-01T10:34:37;102980.95;;;4.42;54.75
24013;BME280;12220;50.194;18.948;2023-03-01T10:36:39;102976.41;;;4.46;54.37
24013;BME280;12220;50.194;18.948;2023-03-01T10:38:52;102975.45;;;4.50;54.43
24013;BME280;12220;50.194;18.948;2023-03-01T10:41:00;102975.44;;;4.54;54.47
24013;BME280;12220;50.194;18.948;2023-03-01T10:43:12;102994.38;;;4.59;54.51
24013;BME280;12220;50.194;18.948;2023-03-01T10:47:27;102964.47;;;4.65;53.57
24013;BME280;12220;50.194;18.948;2023-03-01T10:49:31;102966.26;;;4.68;53.42
24013;BME280;12220;50.194;18.948;2023-03-01T10:51:33;102964.38;;;4.73;53.43
24013;BME280;12220;50.194;18.948;2023-03-01T10:53:41;102971.58;;;4.77;53.32
24013;BME280;12220;50.194;18.948;2023-03-01T10:55:43;102962.52;;;4.80;52.89
24013;BME280;12220;50.194;18.948;2023-03-01T10:57:45;102960.66;;;4.86;52.87
24013;BME280;12220;50.194;18.948;2023-03-01T11:00:01;102957.88;;;4.93;52.38
24013;BME280;12220;50.194;18.948;2023-03-01T11:02:16;102955.95;;;5.02;51.83
24013;BME280;12220;50.194;18.948;2023-03-01T11:04:18;102954.95;;;5.08;52.12
24013;BME280;12220;50.194;18.948;2023-03-01T11:06:22;102952.20;;;5.14;52.09
24013;BME280;12220;50.194;18.948;2023-03-01T11:08:30;102950.30;;;5.19;51.88
24013;BME280;12220;50.194;18.948;2023-03-01T11:10:35;102949.35;;;5.23;51.96
24013;BME280;12220;50.194;18.948;2023-03-01T11:12:46;102936.65;;;5.27;51.84
24013;BME280;12220;50.194;18.948;2023-03-01T11:14:53;102937.48;;;5.31;51.90
24013;BME280;12220;50.194;18.948;2023-03-01T11:17:04;102934.75;;;5.32;51.25
24013;BME280;12220;50.194;18.948;2023-03-01T11:19:18;102928.39;;;5.35;51.06
24013;BME280;12220;50.194;18.948;2023-03-01T11:21:20;102927.44;;;5.39;51.32